Bucharest, Romania

7:17 AM EET on February 22, 2017 (GMT +0200)
Aleea Ilia | | Change Station

Elev 278 ft 44.44 °N, 26.15 °E | Updated 28 seconds ago

Clear
Clear
41.0 °F
Feels Like 41 °F
N
1.2
Wind Variable Wind from South
Gusts 3.1 mph

Today
High -- | Low -- °F
--% Chance of Precip.
Yesterday
High -- | Low -- °F
Precip. -- in
Pressure 29.89 in
Visibility -9999.0 miles
Clouds
Windchill 41 °F
Dew Point 34 °F
Humidity 77%
Rainfall 0.00 in
Snow Depth Not available.
7:04 AM 5:53 PM
Waning Crescent, 20% visible
METAR LRBS 220500Z 28005KT 260V320 CAVOK 03/01 Q1012 NOSIG
Pressure 29.89 in
Visibility -9999.0 miles
Clouds
Windchill 41 °F
Dew Point 34 °F
Humidity 77%
Rainfall 0.00 in
Snow Depth Not available.
7:04 AM 5:53 PM
Waning Crescent, 20% visible
METAR LRBS 220500Z 28005KT 260V320 CAVOK 03/01 Q1012 NOSIG

Get Your Daily Forecast Email!

Thanks for signing up!

Be on the lookout for a verification email in your inbox.

You'll start receiving the daily forecast at 8 AM.

×

10-Day Weather Forecast

×

Almanac

Astronomy

Feb. 22, 2017 Rise Set
Actual Time
Civil Twilight
Nautical Twilight
Astronomical Twilight
Moon
Length of Visible Light
Length of Day
Tomorrow will be .
, % of the Moon is Illuminated

Today's Extremes

Country Highs Country Lows

Community

WunderPhotos

Upload Photos

1,962,540 photos uploaded!

WunderBlog® & News

Nearby

Air Quality

  Air Quality AQ Index Pollutant
Not available.

Snow Depth

Station Depth Elevation

Earthquake Activity

City Distance Mag. Time & Date
Minimum magnitude displayed is 2.5.

Coastal Water Temperatures

Place Temperature

Stations

Nearby Weather Stations

Station Location Temp. Windchill Dew Point Humidity Wind Precip. Elev Updated Type